sensor_id;sensor_type;location;lat;lon;timestamp;pressure;altitude;pressure_sealevel;temperature;humidity
15568;BME280;7885;42.596;23.044;2022-07-26T00:01:56;92867.44;;;19.88;80.38
15568;BME280;7885;42.596;23.044;2022-07-26T00:04:23;92862.41;;;19.96;81.03
15568;BME280;7885;42.596;23.044;2022-07-26T00:06:51;92849.81;;;19.86;80.04
15568;BME280;7885;42.596;23.044;2022-07-26T00:09:18;92864.41;;;19.95;80.94
15568;BME280;7885;42.596;23.044;2022-07-26T00:11:44;92860.88;;;19.95;82.03
15568;BME280;7885;42.596;23.044;2022-07-26T00:14:12;92862.09;;;19.94;82.80
15568;BME280;7885;42.596;23.044;2022-07-26T00:16:39;92860.25;;;19.91;80.02
15568;BME280;7885;42.596;23.044;2022-07-26T00:19:05;92831.94;;;19.69;79.70
15568;BME280;7885;42.596;23.044;2022-07-26T00:21:32;92855.88;;;19.72;81.85
15568;BME280;7885;42.596;23.044;2022-07-26T00:24:02;92856.84;;;19.56;82.84
15568;BME280;7885;42.596;23.044;2022-07-26T00:26:29;92862.22;;;19.50;83.49
15568;BME280;7885;42.596;23.044;2022-07-26T00:28:56;92854.69;;;19.51;82.93
15568;BME280;7885;42.596;23.044;2022-07-26T00:31:23;92862.78;;;19.45;81.01
15568;BME280;7885;42.596;23.044;2022-07-26T00:33:49;92855.06;;;19.40;82.16
15568;BME280;7885;42.596;23.044;2022-07-26T00:36:16;92815.03;;;19.14;83.30
15568;BME280;7885;42.596;23.044;2022-07-26T00:38:43;92824.91;;;19.24;81.50
15568;BME280;7885;42.596;23.044;2022-07-26T00:41:11;92846.16;;;19.36;80.56
15568;BME280;7885;42.596;23.044;2022-07-26T00:43:52;92856.50;;;19.23;82.00
15568;BME280;7885;42.596;23.044;2022-07-26T00:46:19;92850.66;;;19.21;83.92
15568;BME280;7885;42.596;23.044;2022-07-26T00:48:46;92837.75;;;19.18;84.05
15568;BME280;7885;42.596;23.044;2022-07-26T00:51:12;92843.06;;;19.34;83.69
15568;BME280;7885;42.596;23.044;2022-07-26T00:53:39;92845.06;;;19.34;80.75
15568;BME280;7885;42.596;23.044;2022-07-26T00:56:06;92847.63;;;19.28;80.78
15568;BME280;7885;42.596;23.044;2022-07-26T00:58:34;92830.06;;;19.13;81.02
15568;BME280;7885;42.596;23.044;2022-07-26T01:01:01;92801.72;;;18.91;82.94
15568;BME280;7885;42.596;23.044;2022-07-26T01:03:28;92840.50;;;19.18;83.32
15568;BME280;7885;42.596;23.044;2022-07-26T01:05:54;92825.13;;;19.08;82.40
15568;BME280;7885;42.596;23.044;2022-07-26T01:08:21;92838.66;;;19.15;82.28
15568;BME280;7885;42.596;23.044;2022-07-26T01:10:48;92839.31;;;19.19;82.61
15568;BME280;7885;42.596;23.044;2022-07-26T01:13:18;92840.97;;;19.16;83.21
15568;BME280;7885;42.596;23.044;2022-07-26T01:15:46;92815.06;;;18.92;83.64
15568;BME280;7885;42.596;23.044;2022-07-26T01:18:14;92838.78;;;19.11;83.73
15568;BME280;7885;42.596;23.044;2022-07-26T01:20:41;92826.97;;;19.11;83.13
15568;BME280;7885;42.596;23.044;2022-07-26T01:23:10;92842.63;;;19.14;83.39
15568;BME280;7885;42.596;23.044;2022-07-26T01:25:37;92839.50;;;19.03;83.99
15568;BME280;7885;42.596;23.044;2022-07-26T01:28:04;92828.09;;;18.92;85.08
15568;BME280;7885;42.596;23.044;2022-07-26T01:30:31;92826.72;;;18.96;85.17
15568;BME280;7885;42.596;23.044;2022-07-26T01:32:58;92834.31;;;19.05;84.55
15568;BME280;7885;42.596;23.044;2022-07-26T01:38:48;92820.50;;;19.05;83.53
15568;BME280;7885;42.596;23.044;2022-07-26T01:41:15;92811.97;;;19.12;83.03
15568;BME280;7885;42.596;23.044;2022-07-26T01:43:42;92827.31;;;19.13;81.91
15568;BME280;7885;42.596;23.044;2022-07-26T01:46:09;92828.53;;;19.12;82.49
15568;BME280;7885;42.596;23.044;2022-07-26T01:48:38;92832.50;;;19.11;82.64
15568;BME280;7885;42.596;23.044;2022-07-26T01:51:05;92836.47;;;19.10;80.72
15568;BME280;7885;42.596;23.044;2022-07-26T01:53:31;92833.53;;;19.04;80.24
15568;BME280;7885;42.596;23.044;2022-07-26T01:56:00;92842.28;;;19.03;79.31
15568;BME280;7885;42.596;23.044;2022-07-26T01:58:27;92841.53;;;18.90;80.12
15568;BME280;7885;42.596;23.044;2022-07-26T02:00:53;92846.44;;;18.86;80.44
15568;BME280;7885;42.596;23.044;2022-07-26T02:03:20;92842.25;;;18.81;82.32
15568;BME280;7885;42.596;23.044;2022-07-26T02:05:47;92837.00;;;18.74;83.34
15568;BME280;7885;42.596;23.044;2022-07-26T02:08:14;92846.81;;;18.75;84.37
15568;BME280;7885;42.596;23.044;2022-07-26T02:10:40;92848.16;;;18.71;84.98
15568;BME280;7885;42.596;23.044;2022-07-26T02:13:26;92809.63;;;18.45;85.41
15568;BME280;7885;42.596;23.044;2022-07-26T02:15:53;92844.63;;;18.70;85.10
15568;BME280;7885;42.596;23.044;2022-07-26T02:18:20;92840.13;;;18.63;83.42
15568;BME280;7885;42.596;23.044;2022-07-26T02:20:46;92853.13;;;18.63;83.54
15568;BME280;7885;42.596;23.044;2022-07-26T02:23:13;92845.31;;;18.61;85.04
15568;BME280;7885;42.596;23.044;2022-07-26T02:25:40;92845.31;;;18.61;82.55
15568;BME280;7885;42.596;23.044;2022-07-26T02:28:06;92850.50;;;18.59;81.51
15568;BME280;7885;42.596;23.044;2022-07-26T02:30:35;92849.06;;;18.55;82.83
15568;BME280;7885;42.596;23.044;2022-07-26T02:33:02;92844.53;;;18.48;83.38
15568;BME280;7885;42.596;23.044;2022-07-26T02:35:29;92836.84;;;18.43;82.50
15568;BME280;7885;42.596;23.044;2022-07-26T02:38:00;92838.97;;;18.39;83.50
15568;BME280;7885;42.596;23.044;2022-07-26T02:40:27;92852.19;;;18.44;83.48
15568;BME280;7885;42.596;23.044;2022-07-26T02:42:54;92849.31;;;18.35;84.86
15568;BME280;7885;42.596;23.044;2022-07-26T02:45:20;92854.84;;;18.35;85.29
15568;BME280;7885;42.596;23.044;2022-07-26T02:47:50;92844.72;;;18.32;85.67
15568;BME280;7885;42.596;23.044;2022-07-26T02:50:18;92852.19;;;18.32;86.64
15568;BME280;7885;42.596;23.044;2022-07-26T02:52:45;92852.91;;;18.23;86.41
15568;BME280;7885;42.596;23.044;2022-07-26T02:55:13;92851.88;;;18.17;86.26
15568;BME280;7885;42.596;23.044;2022-07-26T02:57:40;92848.50;;;18.13;86.87
15568;BME280;7885;42.596;23.044;2022-07-26T03:00:08;92860.16;;;18.17;85.66
15568;BME280;7885;42.596;23.044;2022-07-26T03:02:36;92850.16;;;18.10;84.70
15568;BME280;7885;42.596;23.044;2022-07-26T03:05:05;92852.47;;;18.12;82.59
15568;BME280;7885;42.596;23.044;2022-07-26T03:07:32;92863.03;;;18.13;83.10
15568;BME280;7885;42.596;23.044;2022-07-26T03:09:59;92803.97;;;17.67;85.83
15568;BME280;7885;42.596;23.044;2022-07-26T03:12:26;92852.72;;;17.80;89.56
15568;BME280;7885;42.596;23.044;2022-07-26T03:14:53;92860.75;;;17.74;91.94
15568;BME280;7885;42.596;23.044;2022-07-26T03:17:20;92820.69;;;17.48;92.77
15568;BME280;7885;42.596;23.044;2022-07-26T03:19:46;92867.25;;;17.67;91.53
15568;BME280;7885;42.596;23.044;2022-07-26T03:22:15;92863.84;;;17.63;89.86
15568;BME280;7885;42.596;23.044;2022-07-26T03:24:41;92832.31;;;17.39;90.45
15568;BME280;7885;42.596;23.044;2022-07-26T03:27:08;92863.84;;;17.63;91.59
15568;BME280;7885;42.596;23.044;2022-07-26T03:29:35;92866.50;;;17.67;90.58
15568;BME280;7885;42.596;23.044;2022-07-26T03:32:02;92868.34;;;17.70;91.53
15568;BME280;7885;42.596;23.044;2022-07-26T03:34:28;92875.41;;;17.71;92.24
15568;BME280;7885;42.596;23.044;2022-07-26T03:36:55;92872.56;;;17.75;89.03
15568;BME280;7885;42.596;23.044;2022-07-26T03:39:23;92867.03;;;17.75;90.20
15568;BME280;7885;42.596;23.044;2022-07-26T03:41:50;92870.13;;;17.77;90.00
15568;BME280;7885;42.596;23.044;2022-07-26T03:44:17;92864.94;;;17.79;89.85
15568;BME280;7885;42.596;23.044;2022-07-26T03:46:43;92835.91;;;17.65;88.76
15568;BME280;7885;42.596;23.044;2022-07-26T03:49:10;92865.72;;;17.92;88.29
15568;BME280;7885;42.596;23.044;2022-07-26T03:51:37;92869.13;;;17.96;87.31
15568;BME280;7885;42.596;23.044;2022-07-26T03:54:04;92862.28;;;18.00;87.71
15568;BME280;7885;42.596;23.044;2022-07-26T03:56:32;92857.88;;;18.03;88.10
15568;BME280;7885;42.596;23.044;2022-07-26T03:58:59;92864.38;;;18.09;87.85
15568;BME280;7885;42.596;23.044;2022-07-26T04:01:27;92858.28;;;18.14;87.83
15568;BME280;7885;42.596;23.044;2022-07-26T04:03:54;92863.91;;;18.23;87.68
15568;BME280;7885;42.596;23.044;2022-07-26T04:09:42;92864.59;;;18.49;88.31
15568;BME280;7885;42.596;23.044;2022-07-26T04:12:10;92872.53;;;18.59;88.44
15568;BME280;7885;42.596;23.044;2022-07-26T04:14:37;92862.06;;;18.67;88.36
15568;BME280;7885;42.596;23.044;2022-07-26T04:17:06;92865.66;;;18.77;87.97
15568;BME280;7885;42.596;23.044;2022-07-26T04:19:33;92866.50;;;18.86;87.26
15568;BME280;7885;42.596;23.044;2022-07-26T04:22:00;92852.56;;;18.90;86.89
15568;BME280;7885;42.596;23.044;2022-07-26T04:24:27;92866.63;;;19.04;86.03
15568;BME280;7885;42.596;23.044;2022-07-26T04:26:53;92857.66;;;19.13;86.09
15568;BME280;7885;42.596;23.044;2022-07-26T04:29:21;92856.50;;;19.23;86.24
15568;BME280;7885;42.596;23.044;2022-07-26T04:31:48;92825.13;;;19.08;85.18
15568;BME280;7885;42.596;23.044;2022-07-26T04:34:15;92848.69;;;19.43;85.18
15568;BME280;7885;42.596;23.044;2022-07-26T04:36:42;92854.22;;;19.52;84.42
15568;BME280;7885;42.596;23.044;2022-07-26T04:39:08;92859.03;;;19.61;82.92
15568;BME280;7885;42.596;23.044;2022-07-26T04:41:35;92854.03;;;19.69;82.86
15568;BME280;7885;42.596;23.044;2022-07-26T04:44:02;92862.34;;;19.78;83.09
15568;BME280;7885;42.596;23.044;2022-07-26T04:46:30;92861.28;;;19.84;83.89
15568;BME280;7885;42.596;23.044;2022-07-26T04:48:57;92860.53;;;19.93;83.81
15568;BME280;7885;42.596;23.044;2022-07-26T04:51:23;92858.91;;;20.04;82.37
15568;BME280;7885;42.596;23.044;2022-07-26T04:53:51;92863.22;;;20.14;81.61
15568;BME280;7885;42.596;23.044;2022-07-26T04:56:17;92867.69;;;20.21;80.21
15568;BME280;7885;42.596;23.044;2022-07-26T04:58:44;92869.00;;;20.29;80.03
15568;BME280;7885;42.596;23.044;2022-07-26T05:01:11;92869.78;;;20.39;80.07
15568;BME280;7885;42.596;23.044;2022-07-26T05:03:39;92843.50;;;20.34;80.13
15568;BME280;7885;42.596;23.044;2022-07-26T05:06:06;92866.56;;;20.58;79.74
15568;BME280;7885;42.596;23.044;2022-07-26T05:08:33;92861.84;;;20.68;80.13
15568;BME280;7885;42.596;23.044;2022-07-26T05:10:59;92846.63;;;20.73;79.37
15568;BME280;7885;42.596;23.044;2022-07-26T05:13:26;92788.53;;;20.45;78.53
15568;BME280;7885;42.596;23.044;2022-07-26T05:15:53;92850.63;;;20.99;78.67
15568;BME280;7885;42.596;23.044;2022-07-26T05:18:19;92859.25;;;21.10;78.86
15568;BME280;7885;42.596;23.044;2022-07-26T05:20:49;92856.50;;;21.19;76.88
15568;BME280;7885;42.596;23.044;2022-07-26T05:23:16;92862.63;;;21.23;76.68
15568;BME280;7885;42.596;23.044;2022-07-26T05:25:44;92856.16;;;21.26;76.67
15568;BME280;7885;42.596;23.044;2022-07-26T05:28:10;92849.06;;;21.34;76.49
15568;BME280;7885;42.596;23.044;2022-07-26T05:30:37;92827.84;;;21.31;76.96
15568;BME280;7885;42.596;23.044;2022-07-26T05:33:04;92860.28;;;21.58;77.02
15568;BME280;7885;42.596;23.044;2022-07-26T05:35:31;92858.25;;;21.67;76.02
15568;BME280;7885;42.596;23.044;2022-07-26T05:37:59;92859.75;;;21.78;75.03
15568;BME280;7885;42.596;23.044;2022-07-26T05:40:26;92852.66;;;21.86;74.00
15568;BME280;7885;42.596;23.044;2022-07-26T05:42:52;92855.41;;;21.95;74.07
15568;BME280;7885;42.596;23.044;2022-07-26T05:45:19;92848.31;;;22.03;74.91
15568;BME280;7885;42.596;23.044;2022-07-26T05:47:48;92857.44;;;22.18;74.87
15568;BME280;7885;42.596;23.044;2022-07-26T06:00:21;92848.88;;;22.63;72.81
15568;BME280;7885;42.596;23.044;2022-07-26T06:02:48;92854.69;;;22.75;72.07
15568;BME280;7885;42.596;23.044;2022-07-26T06:05:15;92839.88;;;22.78;71.84
15568;BME280;7885;42.596;23.044;2022-07-26T06:07:42;92849.00;;;22.93;70.46
15568;BME280;7885;42.596;23.044;2022-07-26T06:10:09;92847.09;;;22.99;70.18
15568;BME280;7885;42.596;23.044;2022-07-26T06:12:35;92837.69;;;22.96;69.56
15568;BME280;7885;42.596;23.044;2022-07-26T06:15:03;92843.28;;;23.11;69.06
15568;BME280;7885;42.596;23.044;2022-07-26T06:17:31;92827.69;;;23.13;68.58
15568;BME280;7885;42.596;23.044;2022-07-26T06:19:58;92835.66;;;23.21;68.76
15568;BME280;7885;42.596;23.044;2022-07-26T06:25:53;92835.03;;;23.40;68.42
15568;BME280;7885;42.596;23.044;2022-07-26T06:28:20;92834.00;;;23.52;67.89
15568;BME280;7885;42.596;23.044;2022-07-26T06:30:46;92834.38;;;23.60;67.54
15568;BME280;7885;42.596;23.044;2022-07-26T06:33:14;92833.22;;;23.67;66.69
15568;BME280;7885;42.596;23.044;2022-07-26T06:35:41;92816.75;;;23.63;67.13
15568;BME280;7885;42.596;23.044;2022-07-26T06:38:08;92833.78;;;23.85;66.98
15568;BME280;7885;42.596;23.044;2022-07-26T06:40:35;92830.13;;;23.94;65.55
15568;BME280;7885;42.596;23.044;2022-07-26T06:43:02;92826.28;;;24.06;65.95
15568;BME280;7885;42.596;23.044;2022-07-26T06:45:29;92824.06;;;24.10;65.85
15568;BME280;7885;42.596;23.044;2022-07-26T06:51:19;92812.63;;;24.37;65.00
15568;BME280;7885;42.596;23.044;2022-07-26T06:53:46;92809.13;;;24.42;65.75
15568;BME280;7885;42.596;23.044;2022-07-26T06:56:13;92822.50;;;24.58;66.24
15568;BME280;7885;42.596;23.044;2022-07-26T06:58:42;92812.34;;;24.76;66.76
15568;BME280;7885;42.596;23.044;2022-07-26T07:01:08;92817.06;;;24.84;65.73
15568;BME280;7885;42.596;23.044;2022-07-26T07:03:35;92818.22;;;24.98;63.77
15568;BME280;7885;42.596;23.044;2022-07-26T07:06:02;92817.09;;;25.10;63.70
15568;BME280;7885;42.596;23.044;2022-07-26T07:08:30;92818.75;;;25.22;62.74
15568;BME280;7885;42.596;23.044;2022-07-26T07:14:19;92818.72;;;25.42;64.75
15568;BME280;7885;42.596;23.044;2022-07-26T07:16:45;92824.47;;;25.59;61.88
15568;BME280;7885;42.596;23.044;2022-07-26T07:19:12;92813.66;;;25.67;61.68
15568;BME280;7885;42.596;23.044;2022-07-26T07:21:39;92801.50;;;25.70;61.14
15568;BME280;7885;42.596;23.044;2022-07-26T07:24:07;92819.47;;;25.94;61.23
15568;BME280;7885;42.596;23.044;2022-07-26T07:26:34;92819.59;;;26.11;59.01
15568;BME280;7885;42.596;23.044;2022-07-26T07:29:01;92818.94;;;26.22;58.76
15568;BME280;7885;42.596;23.044;2022-07-26T07:31:27;92815.44;;;26.27;56.96
15568;BME280;7885;42.596;23.044;2022-07-26T07:33:54;92812.94;;;26.34;56.90
15568;BME280;7885;42.596;23.044;2022-07-26T07:36:21;92811.22;;;26.48;58.49
15568;BME280;7885;42.596;23.044;2022-07-26T07:38:48;92773.13;;;26.39;57.65
15568;BME280;7885;42.596;23.044;2022-07-26T07:41:16;92742.13;;;26.26;55.15
15568;BME280;7885;42.596;23.044;2022-07-26T07:43:43;92791.59;;;26.74;56.44
15568;BME280;7885;42.596;23.044;2022-07-26T07:46:10;92803.09;;;26.87;53.80
15568;BME280;7885;42.596;23.044;2022-07-26T07:48:37;92818.06;;;26.84;54.71
15568;BME280;7885;42.596;23.044;2022-07-26T07:51:05;92779.09;;;26.58;53.63
15568;BME280;7885;42.596;23.044;2022-07-26T07:53:32;92792.88;;;26.78;55.25
15568;BME280;7885;42.596;23.044;2022-07-26T07:55:59;92807.34;;;26.77;54.98
15568;BME280;7885;42.596;23.044;2022-07-26T07:58:30;92801.47;;;26.69;54.49
15568;BME280;7885;42.596;23.044;2022-07-26T08:00:57;92795.88;;;26.69;54.83
15568;BME280;7885;42.596;23.044;2022-07-26T08:03:24;92761.97;;;26.39;52.88
15568;BME280;7885;42.596;23.044;2022-07-26T08:05:50;92739.81;;;26.25;53.52
15568;BME280;7885;42.596;23.044;2022-07-26T08:08:18;92780.81;;;26.55;52.33
15568;BME280;7885;42.596;23.044;2022-07-26T08:10:45;92788.06;;;26.79;50.60
15568;BME280;7885;42.596;23.044;2022-07-26T08:13:12;92792.19;;;26.89;52.72
15568;BME280;7885;42.596;23.044;2022-07-26T08:15:40;92788.94;;;27.01;51.49
15568;BME280;7885;42.596;23.044;2022-07-26T08:18:07;92791.78;;;27.18;50.49
15568;BME280;7885;42.596;23.044;2022-07-26T08:20:33;92783.94;;;27.28;50.11
15568;BME280;7885;42.596;23.044;2022-07-26T08:23:00;92780.13;;;27.31;54.25
15568;BME280;7885;42.596;23.044;2022-07-26T08:25:27;92787.75;;;27.41;49.53
15568;BME280;7885;42.596;23.044;2022-07-26T08:27:54;92784.00;;;27.50;49.70
15568;BME280;7885;42.596;23.044;2022-07-26T08:30:21;92790.63;;;27.58;48.69
15568;BME280;7885;42.596;23.044;2022-07-26T08:32:49;92765.72;;;27.60;46.79
15568;BME280;7885;42.596;23.044;2022-07-26T08:52:07;92758.03;;;28.55;42.35
15568;BME280;7885;42.596;23.044;2022-07-26T08:54:34;92758.03;;;28.72;42.87
15568;BME280;7885;42.596;23.044;2022-07-26T08:57:01;92753.38;;;28.80;42.69
15568;BME280;7885;42.596;23.044;2022-07-26T08:59:28;92760.22;;;28.90;40.46
15568;BME280;7885;42.596;23.044;2022-07-26T09:01:57;92743.41;;;28.90;39.63
15568;BME280;7885;42.596;23.044;2022-07-26T09:04:26;92767.19;;;29.24;39.55
15568;BME280;7885;42.596;23.044;2022-07-26T09:06:55;92757.16;;;29.45;39.69
15568;BME280;7885;42.596;23.044;2022-07-26T09:09:24;92751.72;;;29.58;40.96
15568;BME280;7885;42.596;23.044;2022-07-26T09:11:52;92766.75;;;30.02;40.04
15568;BME280;7885;42.596;23.044;2022-07-26T09:14:19;92766.44;;;30.35;38.11
15568;BME280;7885;42.596;23.044;2022-07-26T09:16:56;92756.81;;;30.55;37.98
15568;BME280;7885;42.596;23.044;2022-07-26T09:19:24;92758.88;;;30.79;37.90
15568;BME280;7885;42.596;23.044;2022-07-26T09:21:54;92764.56;;;31.16;38.72
15568;BME280;7885;42.596;23.044;2022-07-26T09:24:33;92753.47;;;31.42;37.66
15568;BME280;7885;42.596;23.044;2022-07-26T09:27:02;92739.19;;;31.59;34.24
15568;BME280;7885;42.596;23.044;2022-07-26T09:29:30;92744.25;;;31.79;35.38
15568;BME280;7885;42.596;23.044;2022-07-26T09:32:10;92759.34;;;32.14;34.75
15568;BME280;7885;42.596;23.044;2022-07-26T09:45:03;92743.78;;;32.84;32.22
15568;BME280;7885;42.596;23.044;2022-07-26T09:47:40;92748.75;;;33.04;31.83
15568;BME280;7885;42.596;23.044;2022-07-26T09:50:09;92747.88;;;33.09;30.52
15568;BME280;7885;42.596;23.044;2022-07-26T09:52:36;92755.91;;;33.31;29.57
15568;BME280;7885;42.596;23.044;2022-07-26T09:55:04;92748.97;;;33.32;28.81
15568;BME280;7885;42.596;23.044;2022-07-26T09:57:31;92717.81;;;33.25;29.51
15568;BME280;7885;42.596;23.044;2022-07-26T10:00:00;92732.31;;;33.42;29.78
15568;BME280;7885;42.596;23.044;2022-07-26T10:02:31;92744.56;;;33.58;30.53
15568;BME280;7885;42.596;23.044;2022-07-26T10:04:58;92717.84;;;33.59;30.76
15568;BME280;7885;42.596;23.044;2022-07-26T10:07:25;92744.84;;;33.80;30.44
15568;BME280;7885;42.596;23.044;2022-07-26T10:09:56;92742.28;;;33.90;29.53
15568;BME280;7885;42.596;23.044;2022-07-26T10:12:25;92745.47;;;33.39;30.12
15568;BME280;7885;42.596;23.044;2022-07-26T10:14:54;92735.94;;;33.03;28.53
15568;BME280;7885;42.596;23.044;2022-07-26T10:17:46;92731.72;;;32.96;29.92
15568;BME280;7885;42.596;23.044;2022-07-26T10:20:44;92734.84;;;33.32;30.67
15568;BME280;7885;42.596;23.044;2022-07-26T10:23:31;92731.97;;;33.72;30.16
15568;BME280;7885;42.596;23.044;2022-07-26T10:25:58;92725.34;;;33.90;28.52
15568;BME280;7885;42.596;23.044;2022-07-26T10:28:27;92696.22;;;33.74;27.33
15568;BME280;7885;42.596;23.044;2022-07-26T10:31:25;92720.53;;;33.98;28.73
15568;BME280;7885;42.596;23.044;2022-07-26T10:33:57;92691.19;;;34.01;27.89
15568;BME280;7885;42.596;23.044;2022-07-26T10:36:27;92723.78;;;34.43;26.55
15568;BME280;7885;42.596;23.044;2022-07-26T10:39:15;92722.72;;;34.75;27.19
15568;BME280;7885;42.596;23.044;2022-07-26T10:41:57;92721.69;;;34.93;26.15
15568;BME280;7885;42.596;23.044;2022-07-26T10:44:25;92720.44;;;35.02;26.99
15568;BME280;7885;42.596;23.044;2022-07-26T10:46:57;92717.72;;;35.17;26.12
15568;BME280;7885;42.596;23.044;2022-07-26T10:49:35;92709.81;;;35.23;25.17
15568;BME280;7885;42.596;23.044;2022-07-26T10:52:14;92709.31;;;35.04;23.83
15568;BME280;7885;42.596;23.044;2022-07-26T10:55:16;92702.59;;;34.58;24.45
15568;BME280;7885;42.596;23.044;2022-07-26T10:57:45;92680.06;;;34.16;25.16
15568;BME280;7885;42.596;23.044;2022-07-26T11:00:21;92690.88;;;34.25;25.70
15568;BME280;7885;42.596;23.044;2022-07-26T11:02:52;92683.63;;;34.37;27.49
15568;BME280;7885;42.596;23.044;2022-07-26T11:05:21;92679.09;;;34.63;27.00
15568;BME280;7885;42.596;23.044;2022-07-26T11:08:04;92677.97;;;34.66;26.07
15568;BME280;7885;42.596;23.044;2022-07-26T11:10:35;92683.84;;;34.68;27.23
15568;BME280;7885;42.596;23.044;2022-07-26T11:13:08;92674.72;;;34.90;26.33
15568;BME280;7885;42.596;23.044;2022-07-26T11:15:36;92662.94;;;35.07;26.00
15568;BME280;7885;42.596;23.044;2022-07-26T11:18:13;92650.78;;;34.91;25.25
15568;BME280;7885;42.596;23.044;2022-07-26T11:20:43;92658.19;;;34.66;25.54
15568;BME280;7885;42.596;23.044;2022-07-26T11:23:31;92656.69;;;34.16;27.14
15568;BME280;7885;42.596;23.044;2022-07-26T11:26:04;92647.19;;;33.85;25.77
15568;BME280;7885;42.596;23.044;2022-07-26T11:28:45;92640.28;;;34.14;27.06
15568;BME280;7885;42.596;23.044;2022-07-26T11:31:13;92646.31;;;34.39;27.05
15568;BME280;7885;42.596;23.044;2022-07-26T11:33:41;92639.53;;;34.63;26.16
15568;BME280;7885;42.596;23.044;2022-07-26T11:36:11;92644.97;;;34.61;25.86
15568;BME280;7885;42.596;23.044;2022-07-26T11:38:49;92638.69;;;34.83;26.35
15568;BME280;7885;42.596;23.044;2022-07-26T11:41:20;92638.19;;;34.92;25.49
15568;BME280;7885;42.596;23.044;2022-07-26T11:43:48;92624.16;;;34.79;24.31
15568;BME280;7885;42.596;23.044;2022-07-26T11:46:16;92624.72;;;34.49;25.18
15568;BME280;7885;42.596;23.044;2022-07-26T11:48:47;92623.47;;;34.58;26.76
15568;BME280;7885;42.596;23.044;2022-07-26T11:51:16;92628.53;;;34.87;27.34
15568;BME280;7885;42.596;23.044;2022-07-26T11:53:44;92617.28;;;35.03;25.99
15568;BME280;7885;42.596;23.044;2022-07-26T11:56:13;92625.16;;;34.89;25.14
15568;BME280;7885;42.596;23.044;2022-07-26T11:58:42;92622.25;;;34.45;25.48
15568;BME280;7885;42.596;23.044;2022-07-26T12:01:11;92617.41;;;34.25;25.64
15568;BME280;7885;42.596;23.044;2022-07-26T12:03:39;92621.75;;;34.26;25.50
15568;BME280;7885;42.596;23.044;2022-07-26T12:06:09;92611.94;;;34.27;26.25
15568;BME280;7885;42.596;23.044;2022-07-26T12:08:43;92612.06;;;34.42;27.41
15568;BME280;7885;42.596;23.044;2022-07-26T12:11:11;92607.50;;;34.39;26.65
15568;BME280;7885;42.596;23.044;2022-07-26T12:13:53;92603.47;;;34.56;27.25
15568;BME280;7885;42.596;23.044;2022-07-26T12:16:42;92613.56;;;34.72;27.22
15568;BME280;7885;42.596;23.044;2022-07-26T12:19:24;92610.94;;;34.74;24.89
15568;BME280;7885;42.596;23.044;2022-07-26T12:21:53;92594.56;;;34.80;25.21
15568;BME280;7885;42.596;23.044;2022-07-26T12:24:37;92609.44;;;35.16;25.71
15568;BME280;7885;42.596;23.044;2022-07-26T12:27:07;92605.97;;;35.10;25.16
15568;BME280;7885;42.596;23.044;2022-07-26T12:29:34;92574.63;;;34.93;25.46
15568;BME280;7885;42.596;23.044;2022-07-26T12:32:04;92602.88;;;35.29;26.92
15568;BME280;7885;42.596;23.044;2022-07-26T12:34:32;92594.59;;;35.38;25.59
15568;BME280;7885;42.596;23.044;2022-07-26T12:37:13;92595.19;;;34.93;25.37
15568;BME280;7885;42.596;23.044;2022-07-26T12:40:01;92587.47;;;34.58;26.94
15568;BME280;7885;42.596;23.044;2022-07-26T12:42:30;92567.31;;;34.62;26.68
15568;BME280;7885;42.596;23.044;2022-07-26T12:44:58;92589.13;;;34.82;27.57
15568;BME280;7885;42.596;23.044;2022-07-26T12:47:25;92598.78;;;34.94;27.26
15568;BME280;7885;42.596;23.044;2022-07-26T12:49:52;92570.59;;;34.37;24.65
15568;BME280;7885;42.596;23.044;2022-07-26T12:52:21;92591.03;;;34.59;25.11
15568;BME280;7885;42.596;23.044;2022-07-26T12:54:51;92585.84;;;34.42;26.39
15568;BME280;7885;42.596;23.044;2022-07-26T12:57:18;92550.97;;;33.41;26.60
15568;BME280;7885;42.596;23.044;2022-07-26T12:59:46;92585.81;;;33.23;28.33
15568;BME280;7885;42.596;23.044;2022-07-26T13:02:14;92581.72;;;33.11;28.05
15568;BME280;7885;42.596;23.044;2022-07-26T13:04:42;92584.75;;;33.00;28.36
15568;BME280;7885;42.596;23.044;2022-07-26T13:07:09;92575.06;;;33.42;27.75
15568;BME280;7885;42.596;23.044;2022-07-26T13:09:36;92554.03;;;33.43;27.43
15568;BME280;7885;42.596;23.044;2022-07-26T13:12:05;92570.53;;;33.81;27.99
15568;BME280;7885;42.596;23.044;2022-07-26T13:14:33;92565.81;;;34.04;26.57
15568;BME280;7885;42.596;23.044;2022-07-26T13:17:02;92569.16;;;33.95;27.21
15568;BME280;7885;42.596;23.044;2022-07-26T13:19:29;92550.47;;;33.64;28.28
15568;BME280;7885;42.596;23.044;2022-07-26T13:21:57;92564.28;;;33.75;27.46
15568;BME280;7885;42.596;23.044;2022-07-26T13:24:26;92549.16;;;33.93;27.74
15568;BME280;7885;42.596;23.044;2022-07-26T13:26:53;92542.50;;;33.83;26.42
15568;BME280;7885;42.596;23.044;2022-07-26T13:29:21;92570.97;;;33.85;27.60
15568;BME280;7885;42.596;23.044;2022-07-26T13:31:48;92565.31;;;33.85;27.99
15568;BME280;7885;42.596;23.044;2022-07-26T13:34:16;92552.09;;;33.80;27.38
15568;BME280;7885;42.596;23.044;2022-07-26T13:36:43;92559.78;;;33.79;26.46
15568;BME280;7885;42.596;23.044;2022-07-26T13:39:10;92522.56;;;33.39;27.63
15568;BME280;7885;42.596;23.044;2022-07-26T13:41:37;92561.41;;;33.67;28.60
15568;BME280;7885;42.596;23.044;2022-07-26T13:44:04;92566.09;;;33.93;27.54
15568;BME280;7885;42.596;23.044;2022-07-26T13:46:32;92544.34;;;34.01;27.48
15568;BME280;7885;42.596;23.044;2022-07-26T13:49:00;92560.91;;;34.25;26.55
15568;BME280;7885;42.596;23.044;2022-07-26T13:51:29;92562.59;;;34.28;26.45
15568;BME280;7885;42.596;23.044;2022-07-26T14:00:57;92562.31;;;34.39;26.50
15568;BME280;7885;42.596;23.044;2022-07-26T14:03:26;92552.34;;;34.46;25.92
15568;BME280;7885;42.596;23.044;2022-07-26T14:05:52;92551.34;;;34.36;27.38
15568;BME280;7885;42.596;23.044;2022-07-26T14:08:20;92560.28;;;34.47;26.74
15568;BME280;7885;42.596;23.044;2022-07-26T14:10:46;92550.31;;;34.54;27.85